sensor_id;sensor_type;location;lat;lon;timestamp;P1;durP1;ratioP1;P2;durP2;ratioP2
75986;SDS011;75291;44.670;37.810;2024-01-15T00:00:13;2.30;;;1.30;;
75986;SDS011;75291;44.670;37.810;2024-01-15T00:02:38;2.83;;;1.27;;
75986;SDS011;75291;44.670;37.810;2024-01-15T00:03:41;2.85;;;1.33;;
75986;SDS011;75291;44.670;37.810;2024-01-15T00:04:45;2.20;;;1.45;;
75986;SDS011;75291;44.670;37.810;2024-01-15T00:05:48;2.22;;;1.25;;
75986;SDS011;75291;44.670;37.810;2024-01-15T00:06:51;3.88;;;1.48;;
75986;SDS011;75291;44.670;37.810;2024-01-15T00:07:54;2.65;;;1.90;;
75986;SDS011;75291;44.670;37.810;2024-01-15T00:09:16;2.95;;;1.73;;
75986;SDS011;75291;44.670;37.810;2024-01-15T00:10:19;1.92;;;1.13;;
75986;SDS011;75291;44.670;37.810;2024-01-15T00:11:22;3.85;;;1.15;;
75986;SDS011;75291;44.670;37.810;2024-01-15T00:12:25;2.05;;;1.42;;
75986;SDS011;75291;44.670;37.810;2024-01-15T00:13:28;4.15;;;1.38;;
75986;SDS011;75291;44.670;37.810;2024-01-15T00:14:31;2.15;;;1.00;;
75986;SDS011;75291;44.670;37.810;2024-01-15T00:15:34;5.22;;;1.30;;
75986;SDS011;75291;44.670;37.810;2024-01-15T00:16:39;1.95;;;1.00;;
75986;SDS011;75291;44.670;37.810;2024-01-15T00:17:43;3.03;;;1.30;;
75986;SDS011;75291;44.670;37.810;2024-01-15T00:20:08;3.10;;;1.15;;
75986;SDS011;75291;44.670;37.810;2024-01-15T00:21:11;2.38;;;1.20;;
75986;SDS011;75291;44.670;37.810;2024-01-15T00:22:14;3.10;;;1.13;;
75986;SDS011;75291;44.670;37.810;2024-01-15T00:23:55;1.95;;;1.17;;
75986;SDS011;75291;44.670;37.810;2024-01-15T00:24:58;2.75;;;1.40;;
75986;SDS011;75291;44.670;37.810;2024-01-15T00:26:01;3.50;;;1.45;;
75986;SDS011;75291;44.670;37.810;2024-01-15T00:27:04;2.85;;;1.85;;
75986;SDS011;75291;44.670;37.810;2024-01-15T00:28:08;6.20;;;2.05;;
75986;SDS011;75291;44.670;37.810;2024-01-15T00:29:11;2.72;;;1.55;;
75986;SDS011;75291;44.670;37.810;2024-01-15T00:30:14;3.65;;;1.67;;
75986;SDS011;75291;44.670;37.810;2024-01-15T00:31:17;3.25;;;1.48;;
75986;SDS011;75291;44.670;37.810;2024-01-15T00:32:20;2.05;;;1.27;;
75986;SDS011;75291;44.670;37.810;2024-01-15T00:33:23;3.47;;;1.40;;
75986;SDS011;75291;44.670;37.810;2024-01-15T00:34:27;4.70;;;2.00;;
75986;SDS011;75291;44.670;37.810;2024-01-15T00:35:30;1.52;;;1.20;;
75986;SDS011;75291;44.670;37.810;2024-01-15T00:36:52;5.97;;;1.92;;
75986;SDS011;75291;44.670;37.810;2024-01-15T00:37:55;4.00;;;1.73;;
75986;SDS011;75291;44.670;37.810;2024-01-15T00:38:58;3.38;;;1.40;;
75986;SDS011;75291;44.670;37.810;2024-01-15T00:40:01;2.22;;;1.00;;
75986;SDS011;75291;44.670;37.810;2024-01-15T00:41:04;3.78;;;1.35;;
75986;SDS011;75291;44.670;37.810;2024-01-15T00:42:26;3.42;;;1.85;;
75986;SDS011;75291;44.670;37.810;2024-01-15T00:43:29;1.70;;;1.00;;
75986;SDS011;75291;44.670;37.810;2024-01-15T00:44:32;2.85;;;1.63;;
75986;SDS011;75291;44.670;37.810;2024-01-15T00:45:35;2.60;;;1.48;;
75986;SDS011;75291;44.670;37.810;2024-01-15T00:46:42;5.80;;;1.70;;
75986;SDS011;75291;44.670;37.810;2024-01-15T00:47:49;2.55;;;2.10;;
75986;SDS011;75291;44.670;37.810;2024-01-15T00:48:52;3.92;;;1.90;;
75986;SDS011;75291;44.670;37.810;2024-01-15T00:49:55;5.07;;;1.55;;
75986;SDS011;75291;44.670;37.810;2024-01-15T00:50:58;3.38;;;1.55;;
75986;SDS011;75291;44.670;37.810;2024-01-15T00:52:01;3.15;;;1.25;;
75986;SDS011;75291;44.670;37.810;2024-01-15T00:53:04;5.70;;;1.70;;
75986;SDS011;75291;44.670;37.810;2024-01-15T00:55:29;3.83;;;2.20;;
75986;SDS011;75291;44.670;37.810;2024-01-15T00:56:32;2.92;;;1.60;;
75986;SDS011;75291;44.670;37.810;2024-01-15T00:57:35;2.70;;;1.25;;
75986;SDS011;75291;44.670;37.810;2024-01-15T00:58:38;4.22;;;1.98;;
75986;SDS011;75291;44.670;37.810;2024-01-15T00:59:41;5.90;;;2.70;;
75986;SDS011;75291;44.670;37.810;2024-01-15T01:00:44;2.92;;;1.77;;
75986;SDS011;75291;44.670;37.810;2024-01-15T01:01:47;2.83;;;1.88;;
75986;SDS011;75291;44.670;37.810;2024-01-15T01:02:50;3.60;;;1.85;;
75986;SDS011;75291;44.670;37.810;2024-01-15T01:03:54;5.85;;;1.45;;
75986;SDS011;75291;44.670;37.810;2024-01-15T01:04:57;4.70;;;1.50;;
75986;SDS011;75291;44.670;37.810;2024-01-15T01:06:00;2.85;;;1.23;;
75986;SDS011;75291;44.670;37.810;2024-01-15T01:07:03;1.92;;;1.33;;
75986;SDS011;75291;44.670;37.810;2024-01-15T01:08:06;2.78;;;1.27;;
75986;SDS011;75291;44.670;37.810;2024-01-15T01:09:09;5.28;;;2.35;;
75986;SDS011;75291;44.670;37.810;2024-01-15T01:10:12;1.77;;;1.30;;
75986;SDS011;75291;44.670;37.810;2024-01-15T01:11:34;3.72;;;1.58;;
75986;SDS011;75291;44.670;37.810;2024-01-15T01:12:37;1.73;;;1.10;;
75986;SDS011;75291;44.670;37.810;2024-01-15T01:13:40;1.80;;;1.20;;
75986;SDS011;75291;44.670;37.810;2024-01-15T01:14:43;1.75;;;0.85;;
75986;SDS011;75291;44.670;37.810;2024-01-15T01:15:46;1.85;;;0.98;;
75986;SDS011;75291;44.670;37.810;2024-01-15T01:16:49;2.08;;;1.10;;
75986;SDS011;75291;44.670;37.810;2024-01-15T01:17:52;5.45;;;1.40;;
75986;SDS011;75291;44.670;37.810;2024-01-15T01:18:56;2.25;;;1.25;;
75986;SDS011;75291;44.670;37.810;2024-01-15T01:19:59;2.08;;;1.20;;
75986;SDS011;75291;44.670;37.810;2024-01-15T01:22:24;2.42;;;1.52;;
75986;SDS011;75291;44.670;37.810;2024-01-15T01:23:27;3.67;;;1.10;;
75986;SDS011;75291;44.670;37.810;2024-01-15T01:24:30;2.35;;;1.27;;
75986;SDS011;75291;44.670;37.810;2024-01-15T01:25:33;1.40;;;1.00;;
75986;SDS011;75291;44.670;37.810;2024-01-15T01:27:58;2.60;;;0.85;;
75986;SDS011;75291;44.670;37.810;2024-01-15T01:29:01;1.60;;;0.80;;
75986;SDS011;75291;44.670;37.810;2024-01-15T01:30:04;1.50;;;0.90;;
75986;SDS011;75291;44.670;37.810;2024-01-15T01:31:08;3.35;;;1.23;;
75986;SDS011;75291;44.670;37.810;2024-01-15T01:32:11;1.98;;;1.38;;
75986;SDS011;75291;44.670;37.810;2024-01-15T01:33:14;2.63;;;1.40;;
75986;SDS011;75291;44.670;37.810;2024-01-15T01:34:39;3.95;;;0.80;;
75986;SDS011;75291;44.670;37.810;2024-01-15T01:35:44;3.00;;;0.95;;
75986;SDS011;75291;44.670;37.810;2024-01-15T01:36:49;1.48;;;0.90;;
75986;SDS011;75291;44.670;37.810;2024-01-15T01:38:11;1.90;;;0.63;;
75986;SDS011;75291;44.670;37.810;2024-01-15T01:39:14;1.65;;;0.70;;
75986;SDS011;75291;44.670;37.810;2024-01-15T01:40:18;2.50;;;0.88;;
75986;SDS011;75291;44.670;37.810;2024-01-15T01:41:21;2.97;;;0.60;;
75986;SDS011;75291;44.670;37.810;2024-01-15T01:42:26;2.45;;;1.30;;
75986;SDS011;75291;44.670;37.810;2024-01-15T01:43:30;2.00;;;0.85;;
75986;SDS011;75291;44.670;37.810;2024-01-15T01:44:33;1.35;;;0.95;;
75986;SDS011;75291;44.670;37.810;2024-01-15T01:45:37;2.08;;;1.20;;
75986;SDS011;75291;44.670;37.810;2024-01-15T01:46:41;1.30;;;0.57;;
75986;SDS011;75291;44.670;37.810;2024-01-15T01:47:44;4.00;;;1.25;;
75986;SDS011;75291;44.670;37.810;2024-01-15T01:48:47;3.55;;;1.20;;
75986;SDS011;75291;44.670;37.810;2024-01-15T01:49:51;1.55;;;0.85;;
75986;SDS011;75291;44.670;37.810;2024-01-15T01:51:12;2.53;;;1.35;;
75986;SDS011;75291;44.670;37.810;2024-01-15T01:52:16;1.20;;;0.70;;
75986;SDS011;75291;44.670;37.810;2024-01-15T01:53:19;2.28;;;1.70;;
75986;SDS011;75291;44.670;37.810;2024-01-15T01:54:23;1.67;;;1.17;;
75986;SDS011;75291;44.670;37.810;2024-01-15T01:55:28;2.45;;;1.27;;
75986;SDS011;75291;44.670;37.810;2024-01-15T01:56:35;2.22;;;0.93;;
75986;SDS011;75291;44.670;37.810;2024-01-15T01:57:57;2.05;;;0.80;;
75986;SDS011;75291;44.670;37.810;2024-01-15T01:59:01;2.47;;;0.90;;
75986;SDS011;75291;44.670;37.810;2024-01-15T02:00:05;2.58;;;0.73;;
75986;SDS011;75291;44.670;37.810;2024-01-15T02:01:15;1.13;;;0.82;;
75986;SDS011;75291;44.670;37.810;2024-01-15T02:02:19;2.53;;;1.35;;
75986;SDS011;75291;44.670;37.810;2024-01-15T02:03:23;3.08;;;1.02;;
75986;SDS011;75291;44.670;37.810;2024-01-15T02:04:28;2.60;;;1.35;;
75986;SDS011;75291;44.670;37.810;2024-01-15T02:05:32;1.60;;;1.08;;
75986;SDS011;75291;44.670;37.810;2024-01-15T02:06:36;2.55;;;0.77;;
75986;SDS011;75291;44.670;37.810;2024-01-15T02:07:39;1.60;;;0.80;;
75986;SDS011;75291;44.670;37.810;2024-01-15T02:08:43;2.25;;;0.98;;
75986;SDS011;75291;44.670;37.810;2024-01-15T02:09:47;2.42;;;0.77;;
75986;SDS011;75291;44.670;37.810;2024-01-15T02:10:50;1.70;;;1.10;;
75986;SDS011;75291;44.670;37.810;2024-01-15T02:12:12;2.15;;;1.00;;
75986;SDS011;75291;44.670;37.810;2024-01-15T02:13:15;3.47;;;1.17;;
75986;SDS011;75291;44.670;37.810;2024-01-15T02:14:19;1.52;;;1.05;;
75986;SDS011;75291;44.670;37.810;2024-01-15T02:15:26;2.72;;;0.98;;
75986;SDS011;75291;44.670;37.810;2024-01-15T02:16:29;3.47;;;1.30;;
75986;SDS011;75291;44.670;37.810;2024-01-15T02:17:32;3.22;;;1.20;;
75986;SDS011;75291;44.670;37.810;2024-01-15T02:18:42;2.05;;;1.30;;
75986;SDS011;75291;44.670;37.810;2024-01-15T02:19:45;2.15;;;1.00;;
75986;SDS011;75291;44.670;37.810;2024-01-15T02:20:49;3.20;;;1.40;;
75986;SDS011;75291;44.670;37.810;2024-01-15T02:21:52;3.15;;;1.00;;
75986;SDS011;75291;44.670;37.810;2024-01-15T02:23:08;1.48;;;1.05;;
75986;SDS011;75291;44.670;37.810;2024-01-15T02:24:15;1.52;;;1.10;;
75986;SDS011;75291;44.670;37.810;2024-01-15T02:25:18;1.50;;;1.25;;
75986;SDS011;75291;44.670;37.810;2024-01-15T02:26:21;1.40;;;0.90;;
75986;SDS011;75291;44.670;37.810;2024-01-15T02:27:25;1.10;;;0.85;;
75986;SDS011;75291;44.670;37.810;2024-01-15T02:28:28;2.78;;;1.38;;
75986;SDS011;75291;44.670;37.810;2024-01-15T02:29:32;2.75;;;1.20;;
75986;SDS011;75291;44.670;37.810;2024-01-15T02:30:39;2.42;;;1.05;;
75986;SDS011;75291;44.670;37.810;2024-01-15T02:31:43;2.05;;;1.25;;
75986;SDS011;75291;44.670;37.810;2024-01-15T02:32:47;1.10;;;0.80;;
75986;SDS011;75291;44.670;37.810;2024-01-15T02:33:50;2.25;;;1.20;;
75986;SDS011;75291;44.670;37.810;2024-01-15T02:34:53;3.17;;;0.85;;
75986;SDS011;75291;44.670;37.810;2024-01-15T02:35:58;1.42;;;0.82;;
75986;SDS011;75291;44.670;37.810;2024-01-15T02:37:01;2.63;;;1.25;;
75986;SDS011;75291;44.670;37.810;2024-01-15T02:39:26;1.80;;;1.25;;
75986;SDS011;75291;44.670;37.810;2024-01-15T02:40:31;3.70;;;1.70;;
75986;SDS011;75291;44.670;37.810;2024-01-15T02:41:35;3.15;;;1.50;;
75986;SDS011;75291;44.670;37.810;2024-01-15T02:42:38;2.65;;;1.48;;
75986;SDS011;75291;44.670;37.810;2024-01-15T02:43:41;5.35;;;1.70;;
75986;SDS011;75291;44.670;37.810;2024-01-15T02:44:45;6.88;;;1.50;;
75986;SDS011;75291;44.670;37.810;2024-01-15T02:46:06;2.13;;;1.23;;
75986;SDS011;75291;44.670;37.810;2024-01-15T02:47:10;2.45;;;1.13;;
75986;SDS011;75291;44.670;37.810;2024-01-15T02:49:36;2.72;;;1.42;;
75986;SDS011;75291;44.670;37.810;2024-01-15T02:50:39;2.58;;;1.10;;
75986;SDS011;75291;44.670;37.810;2024-01-15T02:51:43;2.33;;;1.40;;
75986;SDS011;75291;44.670;37.810;2024-01-15T02:53:05;2.05;;;1.00;;
75986;SDS011;75291;44.670;37.810;2024-01-15T02:54:09;3.50;;;1.30;;
75986;SDS011;75291;44.670;37.810;2024-01-15T02:56:34;1.85;;;1.15;;
75986;SDS011;75291;44.670;37.810;2024-01-15T02:57:37;3.70;;;1.15;;
75986;SDS011;75291;44.670;37.810;2024-01-15T02:58:41;2.72;;;1.40;;
75986;SDS011;75291;44.670;37.810;2024-01-15T03:00:02;4.03;;;1.45;;
75986;SDS011;75291;44.670;37.810;2024-01-15T03:01:07;5.38;;;1.38;;
75986;SDS011;75291;44.670;37.810;2024-01-15T03:02:12;2.05;;;1.08;;
75986;SDS011;75291;44.670;37.810;2024-01-15T03:03:16;3.53;;;1.50;;
75986;SDS011;75291;44.670;37.810;2024-01-15T03:04:19;3.40;;;1.42;;
75986;SDS011;75291;44.670;37.810;2024-01-15T03:05:22;2.80;;;1.17;;
75986;SDS011;75291;44.670;37.810;2024-01-15T03:06:26;2.78;;;1.92;;
75986;SDS011;75291;44.670;37.810;2024-01-15T03:07:29;2.58;;;1.27;;
75986;SDS011;75291;44.670;37.810;2024-01-15T03:08:33;2.45;;;1.23;;
75986;SDS011;75291;44.670;37.810;2024-01-15T03:09:38;4.10;;;1.33;;
75986;SDS011;75291;44.670;37.810;2024-01-15T03:11:00;3.60;;;1.70;;
75986;SDS011;75291;44.670;37.810;2024-01-15T03:12:03;3.10;;;1.70;;
75986;SDS011;75291;44.670;37.810;2024-01-15T03:13:07;3.20;;;1.50;;
75986;SDS011;75291;44.670;37.810;2024-01-15T03:14:10;2.78;;;1.65;;
75986;SDS011;75291;44.670;37.810;2024-01-15T03:15:32;3.95;;;2.05;;
75986;SDS011;75291;44.670;37.810;2024-01-15T03:16:35;3.78;;;2.28;;
75986;SDS011;75291;44.670;37.810;2024-01-15T03:17:40;5.93;;;2.33;;
75986;SDS011;75291;44.670;37.810;2024-01-15T03:18:45;3.17;;;1.77;;
75986;SDS011;75291;44.670;37.810;2024-01-15T03:19:49;3.25;;;1.73;;
75986;SDS011;75291;44.670;37.810;2024-01-15T03:20:55;3.45;;;1.92;;
75986;SDS011;75291;44.670;37.810;2024-01-15T03:23:38;3.42;;;1.88;;
75986;SDS011;75291;44.670;37.810;2024-01-15T03:24:42;3.88;;;2.00;;
75986;SDS011;75291;44.670;37.810;2024-01-15T03:25:45;3.63;;;1.83;;
75986;SDS011;75291;44.670;37.810;2024-01-15T03:26:48;5.65;;;2.60;;
75986;SDS011;75291;44.670;37.810;2024-01-15T03:27:52;4.07;;;2.00;;
75986;SDS011;75291;44.670;37.810;2024-01-15T03:29:13;4.63;;;2.38;;
75986;SDS011;75291;44.670;37.810;2024-01-15T03:30:16;4.47;;;2.42;;
75986;SDS011;75291;44.670;37.810;2024-01-15T03:31:20;6.20;;;2.78;;
75986;SDS011;75291;44.670;37.810;2024-01-15T03:32:23;4.28;;;2.90;;
75986;SDS011;75291;44.670;37.810;2024-01-15T03:33:27;4.65;;;2.90;;
75986;SDS011;75291;44.670;37.810;2024-01-15T03:34:30;4.82;;;2.75;;
75986;SDS011;75291;44.670;37.810;2024-01-15T03:35:33;6.57;;;3.08;;
75986;SDS011;75291;44.670;37.810;2024-01-15T03:36:37;5.13;;;2.90;;
75986;SDS011;75291;44.670;37.810;2024-01-15T03:37:40;7.53;;;3.28;;
75986;SDS011;75291;44.670;37.810;2024-01-15T03:38:44;3.42;;;2.35;;
75986;SDS011;75291;44.670;37.810;2024-01-15T03:39:47;4.65;;;2.20;;
75986;SDS011;75291;44.670;37.810;2024-01-15T03:40:50;2.95;;;1.73;;
75986;SDS011;75291;44.670;37.810;2024-01-15T03:41:54;2.75;;;1.85;;
75986;SDS011;75291;44.670;37.810;2024-01-15T03:42:58;4.38;;;2.83;;
75986;SDS011;75291;44.670;37.810;2024-01-15T03:44:01;5.13;;;2.50;;
75986;SDS011;75291;44.670;37.810;2024-01-15T03:45:05;4.13;;;2.55;;
75986;SDS011;75291;44.670;37.810;2024-01-15T03:46:08;4.18;;;2.92;;
75986;SDS011;75291;44.670;37.810;2024-01-15T03:47:12;5.55;;;1.85;;
75986;SDS011;75291;44.670;37.810;2024-01-15T03:48:15;4.63;;;2.53;;
75986;SDS011;75291;44.670;37.810;2024-01-15T03:50:42;3.47;;;1.70;;
75986;SDS011;75291;44.670;37.810;2024-01-15T03:51:45;3.78;;;2.00;;
75986;SDS011;75291;44.670;37.810;2024-01-15T03:52:48;4.70;;;2.58;;
75986;SDS011;75291;44.670;37.810;2024-01-15T03:53:52;4.20;;;2.80;;
75986;SDS011;75291;44.670;37.810;2024-01-15T03:54:55;4.65;;;2.53;;
75986;SDS011;75291;44.670;37.810;2024-01-15T03:57:20;3.15;;;2.22;;
75986;SDS011;75291;44.670;37.810;2024-01-15T03:58:23;4.80;;;2.40;;
75986;SDS011;75291;44.670;37.810;2024-01-15T04:00:49;3.13;;;1.70;;
75986;SDS011;75291;44.670;37.810;2024-01-15T04:01:53;4.03;;;2.42;;
75986;SDS011;75291;44.670;37.810;2024-01-15T04:02:56;2.72;;;1.77;;
75986;SDS011;75291;44.670;37.810;2024-01-15T04:03:59;2.63;;;1.45;;
75986;SDS011;75291;44.670;37.810;2024-01-15T04:05:03;2.58;;;1.75;;
75986;SDS011;75291;44.670;37.810;2024-01-15T04:06:09;3.67;;;2.10;;
75986;SDS011;75291;44.670;37.810;2024-01-15T04:07:12;4.70;;;2.15;;
75986;SDS011;75291;44.670;37.810;2024-01-15T04:08:16;3.33;;;2.00;;
75986;SDS011;75291;44.670;37.810;2024-01-15T04:09:19;6.20;;;2.45;;
75986;SDS011;75291;44.670;37.810;2024-01-15T04:10:22;6.25;;;2.42;;
75986;SDS011;75291;44.670;37.810;2024-01-15T04:11:26;3.50;;;1.80;;
75986;SDS011;75291;44.670;37.810;2024-01-15T04:12:29;5.47;;;2.47;;
75986;SDS011;75291;44.670;37.810;2024-01-15T04:13:32;6.35;;;1.80;;
75986;SDS011;75291;44.670;37.810;2024-01-15T04:14:36;4.82;;;2.45;;
75986;SDS011;75291;44.670;37.810;2024-01-15T04:15:39;4.63;;;1.80;;
75986;SDS011;75291;44.670;37.810;2024-01-15T04:17:01;4.78;;;2.30;;
75986;SDS011;75291;44.670;37.810;2024-01-15T04:18:04;5.10;;;2.85;;
75986;SDS011;75291;44.670;37.810;2024-01-15T04:19:08;5.68;;;3.00;;
75986;SDS011;75291;44.670;37.810;2024-01-15T04:20:11;6.18;;;2.60;;
75986;SDS011;75291;44.670;37.810;2024-01-15T04:21:16;5.65;;;2.95;;
75986;SDS011;75291;44.670;37.810;2024-01-15T04:22:21;4.43;;;2.65;;
75986;SDS011;75291;44.670;37.810;2024-01-15T04:23:24;4.75;;;2.50;;
75986;SDS011;75291;44.670;37.810;2024-01-15T04:24:27;2.95;;;1.85;;
75986;SDS011;75291;44.670;37.810;2024-01-15T04:25:31;3.65;;;2.03;;
75986;SDS011;75291;44.670;37.810;2024-01-15T04:26:34;2.80;;;1.33;;
75986;SDS011;75291;44.670;37.810;2024-01-15T04:27:38;2.95;;;1.02;;
75986;SDS011;75291;44.670;37.810;2024-01-15T04:28:41;2.75;;;1.20;;
75986;SDS011;75291;44.670;37.810;2024-01-15T04:29:44;2.38;;;1.63;;
75986;SDS011;75291;44.670;37.810;2024-01-15T04:30:47;2.25;;;1.30;;
75986;SDS011;75291;44.670;37.810;2024-01-15T04:31:52;1.80;;;1.10;;
75986;SDS011;75291;44.670;37.810;2024-01-15T04:32:56;1.40;;;1.02;;
75986;SDS011;75291;44.670;37.810;2024-01-15T04:33:59;2.28;;;1.20;;
75986;SDS011;75291;44.670;37.810;2024-01-15T04:35:03;2.28;;;1.48;;
75986;SDS011;75291;44.670;37.810;2024-01-15T04:36:06;3.08;;;1.80;;
75986;SDS011;75291;44.670;37.810;2024-01-15T04:37:09;3.15;;;1.58;;
75986;SDS011;75291;44.670;37.810;2024-01-15T04:38:31;4.38;;;1.67;;
75986;SDS011;75291;44.670;37.810;2024-01-15T04:39:35;4.25;;;1.52;;
75986;SDS011;75291;44.670;37.810;2024-01-15T04:40:38;2.60;;;1.55;;
75986;SDS011;75291;44.670;37.810;2024-01-15T04:43:04;5.88;;;2.42;;
75986;SDS011;75291;44.670;37.810;2024-01-15T04:44:07;4.05;;;1.75;;
75986;SDS011;75291;44.670;37.810;2024-01-15T04:45:10;5.68;;;2.28;;
75986;SDS011;75291;44.670;37.810;2024-01-15T04:46:14;5.80;;;2.58;;
75986;SDS011;75291;44.670;37.810;2024-01-15T04:47:17;4.05;;;2.30;;
75986;SDS011;75291;44.670;37.810;2024-01-15T04:48:20;4.55;;;2.70;;
75986;SDS011;75291;44.670;37.810;2024-01-15T04:49:25;4.18;;;2.33;;
75986;SDS011;75291;44.670;37.810;2024-01-15T04:50:31;4.60;;;2.58;;
75986;SDS011;75291;44.670;37.810;2024-01-15T04:51:34;6.63;;;2.70;;
75986;SDS011;75291;44.670;37.810;2024-01-15T04:52:56;4.90;;;2.80;;
75986;SDS011;75291;44.670;37.810;2024-01-15T04:53:59;4.85;;;2.38;;
75986;SDS011;75291;44.670;37.810;2024-01-15T04:55:02;5.80;;;2.53;;
75986;SDS011;75291;44.670;37.810;2024-01-15T04:56:06;5.47;;;2.80;;
75986;SDS011;75291;44.670;37.810;2024-01-15T04:57:09;6.20;;;2.75;;
75986;SDS011;75291;44.670;37.810;2024-01-15T04:58:12;5.15;;;2.50;;
75986;SDS011;75291;44.670;37.810;2024-01-15T04:59:15;5.75;;;2.88;;
75986;SDS011;75291;44.670;37.810;2024-01-15T05:00:18;6.80;;;2.60;;
75986;SDS011;75291;44.670;37.810;2024-01-15T05:01:22;5.93;;;3.42;;
75986;SDS011;75291;44.670;37.810;2024-01-15T05:02:25;4.53;;;2.55;;
75986;SDS011;75291;44.670;37.810;2024-01-15T05:03:29;7.32;;;3.42;;
75986;SDS011;75291;44.670;37.810;2024-01-15T05:04:33;6.35;;;3.50;;
75986;SDS011;75291;44.670;37.810;2024-01-15T05:05:57;6.75;;;3.10;;
75986;SDS011;75291;44.670;37.810;2024-01-15T05:07:00;5.95;;;2.70;;
75986;SDS011;75291;44.670;37.810;2024-01-15T05:08:03;4.43;;;2.92;;
75986;SDS011;75291;44.670;37.810;2024-01-15T05:09:07;5.00;;;2.85;;
75986;SDS011;75291;44.670;37.810;2024-01-15T05:10:10;6.15;;;3.53;;
75986;SDS011;75291;44.670;37.810;2024-01-15T05:11:13;6.50;;;3.20;;
75986;SDS011;75291;44.670;37.810;2024-01-15T05:12:17;5.57;;;3.22;;
75986;SDS011;75291;44.670;37.810;2024-01-15T05:13:20;9.55;;;4.15;;
75986;SDS011;75291;44.670;37.810;2024-01-15T05:14:23;6.22;;;3.53;;
75986;SDS011;75291;44.670;37.810;2024-01-15T05:15:45;7.00;;;3.95;;
75986;SDS011;75291;44.670;37.810;2024-01-15T05:17:06;9.35;;;3.85;;
75986;SDS011;75291;44.670;37.810;2024-01-15T05:18:30;5.10;;;3.13;;
75986;SDS011;75291;44.670;37.810;2024-01-15T05:19:51;12.73;;;4.80;;
75986;SDS011;75291;44.670;37.810;2024-01-15T05:20:54;8.43;;;4.20;;
75986;SDS011;75291;44.670;37.810;2024-01-15T05:21:58;6.53;;;3.72;;
75986;SDS011;75291;44.670;37.810;2024-01-15T05:23:01;10.13;;;5.05;;
75986;SDS011;75291;44.670;37.810;2024-01-15T05:24:04;8.60;;;4.47;;
75986;SDS011;75291;44.670;37.810;2024-01-15T05:25:07;9.88;;;4.10;;
75986;SDS011;75291;44.670;37.810;2024-01-15T05:26:10;8.27;;;4.20;;
75986;SDS011;75291;44.670;37.810;2024-01-15T05:27:13;7.38;;;4.55;;
75986;SDS011;75291;44.670;37.810;2024-01-15T05:28:17;7.60;;;5.07;;
75986;SDS011;75291;44.670;37.810;2024-01-15T05:29:20;11.90;;;4.93;;
75986;SDS011;75291;44.670;37.810;2024-01-15T05:30:23;8.65;;;5.10;;
75986;SDS011;75291;44.670;37.810;2024-01-15T05:31:26;8.88;;;4.57;;
75986;SDS011;75291;44.670;37.810;2024-01-15T05:32:29;8.48;;;4.53;;
75986;SDS011;75291;44.670;37.810;2024-01-15T05:33:32;9.55;;;4.65;;
75986;SDS011;75291;44.670;37.810;2024-01-15T05:34:36;10.77;;;5.03;;
75986;SDS011;75291;44.670;37.810;2024-01-15T05:35:39;9.35;;;3.95;;
75986;SDS011;75291;44.670;37.810;2024-01-15T05:36:42;11.65;;;4.45;;
75986;SDS011;75291;44.670;37.810;2024-01-15T05:37:45;7.45;;;4.32;;
75986;SDS011;75291;44.670;37.810;2024-01-15T05:38:48;7.65;;;4.65;;
75986;SDS011;75291;44.670;37.810;2024-01-15T05:39:52;8.75;;;4.25;;
75986;SDS011;75291;44.670;37.810;2024-01-15T05:40:55;7.40;;;4.65;;
75986;SDS011;75291;44.670;37.810;2024-01-15T05:41:58;12.15;;;4.30;;
75986;SDS011;75291;44.670;37.810;2024-01-15T05:43:02;10.38;;;5.30;;
75986;SDS011;75291;44.670;37.810;2024-01-15T05:44:05;8.68;;;3.90;;
75986;SDS011;75291;44.670;37.810;2024-01-15T05:45:27;7.25;;;4.30;;
75986;SDS011;75291;44.670;37.810;2024-01-15T05:46:32;5.53;;;2.83;;
75986;SDS011;75291;44.670;37.810;2024-01-15T05:47:35;11.30;;;4.47;;
75986;SDS011;75291;44.670;37.810;2024-01-15T05:48:38;10.82;;;4.40;;
75986;SDS011;75291;44.670;37.810;2024-01-15T05:49:41;12.45;;;5.55;;
75986;SDS011;75291;44.670;37.810;2024-01-15T05:50:44;8.07;;;3.88;;
75986;SDS011;75291;44.670;37.810;2024-01-15T05:51:47;8.95;;;4.25;;
75986;SDS011;75291;44.670;37.810;2024-01-15T05:52:50;13.30;;;4.50;;
75986;SDS011;75291;44.670;37.810;2024-01-15T05:53:54;10.45;;;5.28;;
75986;SDS011;75291;44.670;37.810;2024-01-15T05:55:16;10.13;;;4.53;;
75986;SDS011;75291;44.670;37.810;2024-01-15T05:56:20;13.23;;;5.35;;
75986;SDS011;75291;44.670;37.810;2024-01-15T05:57:23;9.48;;;5.20;;
75986;SDS011;75291;44.670;37.810;2024-01-15T05:58:27;10.52;;;3.22;;
75986;SDS011;75291;44.670;37.810;2024-01-15T05:59:30;7.72;;;3.67;;
75986;SDS011;75291;44.670;37.810;2024-01-15T06:00:36;6.75;;;3.38;;
75986;SDS011;75291;44.670;37.810;2024-01-15T06:01:40;5.97;;;2.97;;
75986;SDS011;75291;44.670;37.810;2024-01-15T06:02:43;8.68;;;3.75;;
75986;SDS011;75291;44.670;37.810;2024-01-15T06:04:05;6.93;;;3.25;;
75986;SDS011;75291;44.670;37.810;2024-01-15T06:05:09;11.85;;;4.70;;
75986;SDS011;75291;44.670;37.810;2024-01-15T06:06:12;9.63;;;4.57;;
75986;SDS011;75291;44.670;37.810;2024-01-15T06:07:15;7.60;;;4.10;;
75986;SDS011;75291;44.670;37.810;2024-01-15T06:08:37;7.30;;;3.70;;
75986;SDS011;75291;44.670;37.810;2024-01-15T06:09:40;6.82;;;3.05;;
75986;SDS011;75291;44.670;37.810;2024-01-15T06:10:43;10.32;;;4.43;;
75986;SDS011;75291;44.670;37.810;2024-01-15T06:12:23;7.25;;;4.00;;
75986;SDS011;75291;44.670;37.810;2024-01-15T06:13:27;9.27;;;3.80;;
75986;SDS011;75291;44.670;37.810;2024-01-15T06:14:30;9.35;;;3.80;;
75986;SDS011;75291;44.670;37.810;2024-01-15T06:15:33;8.73;;;3.97;;
75986;SDS011;75291;44.670;37.810;2024-01-15T06:16:36;8.82;;;4.05;;
75986;SDS011;75291;44.670;37.810;2024-01-15T06:17:58;7.85;;;3.22;;
75986;SDS011;75291;44.670;37.810;2024-01-15T06:19:01;12.02;;;4.25;;
75986;SDS011;75291;44.670;37.810;2024-01-15T06:20:04;8.75;;;4.93;;
75986;SDS011;75291;44.670;37.810;2024-01-15T06:21:08;7.53;;;2.95;;
75986;SDS011;75291;44.670;37.810;2024-01-15T06:22:12;7.45;;;3.30;;
75986;SDS011;75291;44.670;37.810;2024-01-15T06:23:15;10.35;;;4.22;;
75986;SDS011;75291;44.670;37.810;2024-01-15T06:24:20;7.03;;;3.70;;
75986;SDS011;75291;44.670;37.810;2024-01-15T06:25:23;7.97;;;3.15;;
75986;SDS011;75291;44.670;37.810;2024-01-15T06:26:26;8.07;;;3.95;;
75986;SDS011;75291;44.670;37.810;2024-01-15T06:27:29;7.95;;;3.20;;
75986;SDS011;75291;44.670;37.810;2024-01-15T06:28:32;8.30;;;3.45;;
75986;SDS011;75291;44.670;37.810;2024-01-15T06:29:37;6.57;;;3.60;;
75986;SDS011;75291;44.670;37.810;2024-01-15T06:30:58;8.25;;;2.78;;
75986;SDS011;75291;44.670;37.810;2024-01-15T06:32:02;8.25;;;3.45;;
75986;SDS011;75291;44.670;37.810;2024-01-15T06:33:05;3.80;;;2.50;;
75986;SDS011;75291;44.670;37.810;2024-01-15T06:34:09;8.65;;;3.60;;
75986;SDS011;75291;44.670;37.810;2024-01-15T06:35:15;5.93;;;2.90;;
75986;SDS011;75291;44.670;37.810;2024-01-15T06:36:19;3.53;;;2.10;;
75986;SDS011;75291;44.670;37.810;2024-01-15T06:37:22;7.95;;;2.40;;
75986;SDS011;75291;44.670;37.810;2024-01-15T06:38:25;5.65;;;2.83;;
75986;SDS011;75291;44.670;37.810;2024-01-15T06:39:28;6.85;;;3.45;;
75986;SDS011;75291;44.670;37.810;2024-01-15T06:40:32;5.07;;;1.80;;
75986;SDS011;75291;44.670;37.810;2024-01-15T06:41:35;4.32;;;1.50;;
75986;SDS011;75291;44.670;37.810;2024-01-15T06:42:46;3.25;;;1.83;;
75986;SDS011;75291;44.670;37.810;2024-01-15T06:43:49;3.83;;;1.88;;
75986;SDS011;75291;44.670;37.810;2024-01-15T06:44:52;3.90;;;2.05;;